sensor_id;sensor_type;location;lat;lon;timestamp;P1;durP1;ratioP1;P2;durP2;ratioP2
67757;SDS011;54562;47.620;18.786;2023-05-07T00:03:00;17.90;;;12.50;;
67757;SDS011;54562;47.620;18.786;2023-05-07T00:06:07;19.10;;;12.50;;
67757;SDS011;54562;47.620;18.786;2023-05-07T00:09:15;19.10;;;12.70;;
67757;SDS011;54562;47.620;18.786;2023-05-07T00:12:21;17.60;;;13.20;;
67757;SDS011;54562;47.620;18.786;2023-05-07T00:15:28;18.90;;;13.20;;
67757;SDS011;54562;47.620;18.786;2023-05-07T00:18:34;19.40;;;13.60;;
67757;SDS011;54562;47.620;18.786;2023-05-07T00:21:40;20.50;;;13.00;;
67757;SDS011;54562;47.620;18.786;2023-05-07T00:24:47;17.00;;;12.40;;
67757;SDS011;54562;47.620;18.786;2023-05-07T00:27:53;18.20;;;13.00;;
67757;SDS011;54562;47.620;18.786;2023-05-07T00:31:00;19.20;;;13.20;;
67757;SDS011;54562;47.620;18.786;2023-05-07T00:34:07;19.80;;;14.40;;
67757;SDS011;54562;47.620;18.786;2023-05-07T00:37:13;19.00;;;14.40;;
67757;SDS011;54562;47.620;18.786;2023-05-07T00:40:19;20.00;;;14.00;;
67757;SDS011;54562;47.620;18.786;2023-05-07T00:43:25;19.20;;;14.00;;
67757;SDS011;54562;47.620;18.786;2023-05-07T00:46:31;20.90;;;13.50;;
67757;SDS011;54562;47.620;18.786;2023-05-07T00:49:39;18.50;;;13.30;;
67757;SDS011;54562;47.620;18.786;2023-05-07T00:52:47;20.40;;;14.10;;
67757;SDS011;54562;47.620;18.786;2023-05-07T00:55:54;21.60;;;14.60;;
67757;SDS011;54562;47.620;18.786;2023-05-07T00:59:01;18.40;;;13.00;;
67757;SDS011;54562;47.620;18.786;2023-05-07T01:02:08;18.90;;;12.50;;
67757;SDS011;54562;47.620;18.786;2023-05-07T01:05:15;16.90;;;11.30;;
67757;SDS011;54562;47.620;18.786;2023-05-07T01:11:29;14.00;;;9.50;;
67757;SDS011;54562;47.620;18.786;2023-05-07T01:14:36;13.60;;;9.60;;
67757;SDS011;54562;47.620;18.786;2023-05-07T01:17:42;13.40;;;9.30;;
67757;SDS011;54562;47.620;18.786;2023-05-07T01:20:49;15.60;;;10.20;;
67757;SDS011;54562;47.620;18.786;2023-05-07T01:23:55;14.70;;;10.10;;
67757;SDS011;54562;47.620;18.786;2023-05-07T01:27:02;17.60;;;10.50;;
67757;SDS011;54562;47.620;18.786;2023-05-07T01:30:09;15.00;;;10.70;;
67757;SDS011;54562;47.620;18.786;2023-05-07T01:33:17;13.10;;;9.70;;
67757;SDS011;54562;47.620;18.786;2023-05-07T01:36:25;14.20;;;10.00;;
67757;SDS011;54562;47.620;18.786;2023-05-07T01:39:31;14.70;;;10.50;;
67757;SDS011;54562;47.620;18.786;2023-05-07T01:42:41;15.00;;;10.40;;
67757;SDS011;54562;47.620;18.786;2023-05-07T01:45:47;14.10;;;9.70;;
67757;SDS011;54562;47.620;18.786;2023-05-07T01:48:54;15.00;;;10.00;;
67757;SDS011;54562;47.620;18.786;2023-05-07T01:52:00;14.40;;;10.20;;
67757;SDS011;54562;47.620;18.786;2023-05-07T01:55:07;13.80;;;9.20;;
67757;SDS011;54562;47.620;18.786;2023-05-07T01:58:14;13.30;;;9.20;;
67757;SDS011;54562;47.620;18.786;2023-05-07T02:01:20;12.40;;;8.90;;
67757;SDS011;54562;47.620;18.786;2023-05-07T02:04:26;12.20;;;8.20;;
67757;SDS011;54562;47.620;18.786;2023-05-07T02:07:32;11.80;;;8.10;;
67757;SDS011;54562;47.620;18.786;2023-05-07T02:10:39;13.40;;;8.70;;
67757;SDS011;54562;47.620;18.786;2023-05-07T02:13:45;12.20;;;8.10;;
67757;SDS011;54562;47.620;18.786;2023-05-07T02:16:51;12.80;;;8.70;;
67757;SDS011;54562;47.620;18.786;2023-05-07T02:19:57;11.60;;;8.20;;
67757;SDS011;54562;47.620;18.786;2023-05-07T02:23:04;12.70;;;8.40;;
67757;SDS011;54562;47.620;18.786;2023-05-07T02:26:10;13.30;;;8.90;;
67757;SDS011;54562;47.620;18.786;2023-05-07T02:29:16;13.10;;;8.60;;
67757;SDS011;54562;47.620;18.786;2023-05-07T02:32:22;12.60;;;8.30;;
67757;SDS011;54562;47.620;18.786;2023-05-07T02:35:29;11.70;;;8.30;;
67757;SDS011;54562;47.620;18.786;2023-05-07T02:38:35;14.50;;;8.60;;
67757;SDS011;54562;47.620;18.786;2023-05-07T02:41:42;12.80;;;8.10;;
67757;SDS011;54562;47.620;18.786;2023-05-07T02:44:48;13.10;;;8.30;;
67757;SDS011;54562;47.620;18.786;2023-05-07T02:47:54;12.00;;;8.30;;
67757;SDS011;54562;47.620;18.786;2023-05-07T02:51:01;12.70;;;8.40;;
67757;SDS011;54562;47.620;18.786;2023-05-07T02:54:10;12.20;;;8.40;;
67757;SDS011;54562;47.620;18.786;2023-05-07T02:57:16;14.60;;;8.70;;
67757;SDS011;54562;47.620;18.786;2023-05-07T03:00:23;15.00;;;8.30;;
67757;SDS011;54562;47.620;18.786;2023-05-07T03:03:29;13.10;;;8.30;;
67757;SDS011;54562;47.620;18.786;2023-05-07T03:06:35;12.60;;;8.10;;
67757;SDS011;54562;47.620;18.786;2023-05-07T03:09:42;12.40;;;8.00;;
67757;SDS011;54562;47.620;18.786;2023-05-07T03:12:48;13.60;;;8.60;;
67757;SDS011;54562;47.620;18.786;2023-05-07T03:15:54;12.40;;;8.00;;
67757;SDS011;54562;47.620;18.786;2023-05-07T03:19:00;13.00;;;8.10;;
67757;SDS011;54562;47.620;18.786;2023-05-07T03:22:07;12.30;;;7.80;;
67757;SDS011;54562;47.620;18.786;2023-05-07T03:25:13;12.40;;;8.00;;
67757;SDS011;54562;47.620;18.786;2023-05-07T03:28:20;13.10;;;8.30;;
67757;SDS011;54562;47.620;18.786;2023-05-07T03:31:26;12.30;;;7.60;;
67757;SDS011;54562;47.620;18.786;2023-05-07T03:34:32;11.60;;;7.30;;
67757;SDS011;54562;47.620;18.786;2023-05-07T03:37:39;11.90;;;7.40;;
67757;SDS011;54562;47.620;18.786;2023-05-07T03:40:45;13.30;;;8.00;;
67757;SDS011;54562;47.620;18.786;2023-05-07T03:43:51;10.40;;;7.20;;
67757;SDS011;54562;47.620;18.786;2023-05-07T03:46:59;12.30;;;7.50;;
67757;SDS011;54562;47.620;18.786;2023-05-07T03:50:06;11.90;;;7.40;;
67757;SDS011;54562;47.620;18.786;2023-05-07T03:53:13;12.10;;;8.00;;
67757;SDS011;54562;47.620;18.786;2023-05-07T03:56:20;12.60;;;8.50;;
67757;SDS011;54562;47.620;18.786;2023-05-07T03:59:26;11.70;;;7.70;;
67757;SDS011;54562;47.620;18.786;2023-05-07T04:02:32;10.90;;;7.20;;
67757;SDS011;54562;47.620;18.786;2023-05-07T04:05:39;11.40;;;7.60;;
67757;SDS011;54562;47.620;18.786;2023-05-07T04:08:45;12.90;;;8.20;;
67757;SDS011;54562;47.620;18.786;2023-05-07T04:11:51;13.30;;;8.90;;
67757;SDS011;54562;47.620;18.786;2023-05-07T04:14:58;14.80;;;9.40;;
67757;SDS011;54562;47.620;18.786;2023-05-07T04:18:04;14.20;;;9.10;;
67757;SDS011;54562;47.620;18.786;2023-05-07T04:21:15;13.80;;;8.60;;
67757;SDS011;54562;47.620;18.786;2023-05-07T04:24:21;13.50;;;8.90;;
67757;SDS011;54562;47.620;18.786;2023-05-07T04:27:27;13.00;;;8.90;;
67757;SDS011;54562;47.620;18.786;2023-05-07T04:30:34;13.80;;;8.60;;
67757;SDS011;54562;47.620;18.786;2023-05-07T04:33:40;12.20;;;7.50;;
67757;SDS011;54562;47.620;18.786;2023-05-07T04:36:48;12.00;;;8.00;;
67757;SDS011;54562;47.620;18.786;2023-05-07T04:39:54;11.30;;;7.80;;
67757;SDS011;54562;47.620;18.786;2023-05-07T04:43:00;13.20;;;8.00;;
67757;SDS011;54562;47.620;18.786;2023-05-07T04:46:07;15.90;;;10.00;;
67757;SDS011;54562;47.620;18.786;2023-05-07T04:49:13;15.90;;;10.90;;
67757;SDS011;54562;47.620;18.786;2023-05-07T04:52:20;13.00;;;7.40;;
67757;SDS011;54562;47.620;18.786;2023-05-07T04:55:29;9.50;;;6.60;;
67757;SDS011;54562;47.620;18.786;2023-05-07T04:58:35;13.50;;;8.10;;
67757;SDS011;54562;47.620;18.786;2023-05-07T05:01:41;11.40;;;7.70;;
67757;SDS011;54562;47.620;18.786;2023-05-07T05:04:47;16.30;;;10.90;;
67757;SDS011;54562;47.620;18.786;2023-05-07T05:07:54;16.30;;;11.20;;
67757;SDS011;54562;47.620;18.786;2023-05-07T05:11:01;17.40;;;11.20;;
67757;SDS011;54562;47.620;18.786;2023-05-07T05:14:07;17.70;;;11.60;;
67757;SDS011;54562;47.620;18.786;2023-05-07T05:17:14;17.60;;;11.50;;
67757;SDS011;54562;47.620;18.786;2023-05-07T05:20:20;17.90;;;12.10;;
67757;SDS011;54562;47.620;18.786;2023-05-07T05:23:26;17.10;;;11.80;;
67757;SDS011;54562;47.620;18.786;2023-05-07T05:26:32;16.40;;;11.60;;
67757;SDS011;54562;47.620;18.786;2023-05-07T05:29:38;18.30;;;11.80;;
67757;SDS011;54562;47.620;18.786;2023-05-07T05:32:44;17.10;;;11.90;;
67757;SDS011;54562;47.620;18.786;2023-05-07T05:35:51;18.20;;;11.50;;
67757;SDS011;54562;47.620;18.786;2023-05-07T05:38:57;16.90;;;11.00;;
67757;SDS011;54562;47.620;18.786;2023-05-07T05:42:05;15.20;;;10.60;;
67757;SDS011;54562;47.620;18.786;2023-05-07T05:45:11;16.90;;;10.90;;
67757;SDS011;54562;47.620;18.786;2023-05-07T05:48:18;15.20;;;10.70;;
67757;SDS011;54562;47.620;18.786;2023-05-07T05:51:24;15.60;;;10.70;;
67757;SDS011;54562;47.620;18.786;2023-05-07T05:54:30;14.80;;;10.40;;
67757;SDS011;54562;47.620;18.786;2023-05-07T05:57:37;14.30;;;10.30;;
67757;SDS011;54562;47.620;18.786;2023-05-07T06:00:43;15.50;;;10.60;;
67757;SDS011;54562;47.620;18.786;2023-05-07T06:03:51;13.80;;;9.80;;
67757;SDS011;54562;47.620;18.786;2023-05-07T06:06:58;15.20;;;9.80;;
67757;SDS011;54562;47.620;18.786;2023-05-07T06:10:05;16.10;;;10.10;;
67757;SDS011;54562;47.620;18.786;2023-05-07T06:13:13;15.20;;;10.20;;
67757;SDS011;54562;47.620;18.786;2023-05-07T06:16:19;17.40;;;10.40;;
67757;SDS011;54562;47.620;18.786;2023-05-07T06:19:25;13.90;;;10.00;;
67757;SDS011;54562;47.620;18.786;2023-05-07T06:22:31;15.90;;;10.20;;
67757;SDS011;54562;47.620;18.786;2023-05-07T06:25:37;15.10;;;10.00;;
67757;SDS011;54562;47.620;18.786;2023-05-07T06:28:44;13.80;;;10.20;;
67757;SDS011;54562;47.620;18.786;2023-05-07T06:31:51;13.90;;;10.10;;
67757;SDS011;54562;47.620;18.786;2023-05-07T06:34:57;13.60;;;9.90;;
67757;SDS011;54562;47.620;18.786;2023-05-07T06:38:04;13.60;;;9.50;;
67757;SDS011;54562;47.620;18.786;2023-05-07T06:41:10;13.40;;;9.70;;
67757;SDS011;54562;47.620;18.786;2023-05-07T06:44:16;13.50;;;9.40;;
67757;SDS011;54562;47.620;18.786;2023-05-07T06:47:24;14.30;;;10.10;;
67757;SDS011;54562;47.620;18.786;2023-05-07T06:50:30;16.40;;;10.50;;
67757;SDS011;54562;47.620;18.786;2023-05-07T06:53:36;14.10;;;10.20;;
67757;SDS011;54562;47.620;18.786;2023-05-07T06:56:43;15.60;;;10.00;;
67757;SDS011;54562;47.620;18.786;2023-05-07T06:59:49;14.50;;;10.30;;
67757;SDS011;54562;47.620;18.786;2023-05-07T07:02:56;14.50;;;10.50;;
67757;SDS011;54562;47.620;18.786;2023-05-07T07:06:03;15.20;;;10.50;;
67757;SDS011;54562;47.620;18.786;2023-05-07T07:09:09;15.10;;;10.70;;
67757;SDS011;54562;47.620;18.786;2023-05-07T07:12:15;15.80;;;10.90;;
67757;SDS011;54562;47.620;18.786;2023-05-07T07:15:21;15.10;;;10.50;;
67757;SDS011;54562;47.620;18.786;2023-05-07T07:18:28;14.70;;;10.10;;
67757;SDS011;54562;47.620;18.786;2023-05-07T07:21:34;14.90;;;10.20;;
67757;SDS011;54562;47.620;18.786;2023-05-07T07:24:40;15.00;;;10.70;;
67757;SDS011;54562;47.620;18.786;2023-05-07T07:27:46;13.60;;;10.40;;
67757;SDS011;54562;47.620;18.786;2023-05-07T07:30:52;14.30;;;10.50;;
67757;SDS011;54562;47.620;18.786;2023-05-07T07:33:59;14.80;;;10.80;;
67757;SDS011;54562;47.620;18.786;2023-05-07T07:37:05;13.40;;;9.70;;
67757;SDS011;54562;47.620;18.786;2023-05-07T07:40:12;15.40;;;10.50;;
67757;SDS011;54562;47.620;18.786;2023-05-07T07:43:18;14.20;;;9.80;;
67757;SDS011;54562;47.620;18.786;2023-05-07T07:46:24;15.70;;;11.20;;
67757;SDS011;54562;47.620;18.786;2023-05-07T07:49:31;16.30;;;11.20;;
67757;SDS011;54562;47.620;18.786;2023-05-07T07:52:38;16.00;;;11.20;;
67757;SDS011;54562;47.620;18.786;2023-05-07T07:55:44;15.50;;;11.20;;
67757;SDS011;54562;47.620;18.786;2023-05-07T07:58:50;15.20;;;11.00;;
67757;SDS011;54562;47.620;18.786;2023-05-07T08:01:57;15.20;;;11.00;;
67757;SDS011;54562;47.620;18.786;2023-05-07T08:05:03;14.40;;;10.70;;
67757;SDS011;54562;47.620;18.786;2023-05-07T08:08:10;14.40;;;10.00;;
67757;SDS011;54562;47.620;18.786;2023-05-07T08:11:16;15.30;;;10.30;;
67757;SDS011;54562;47.620;18.786;2023-05-07T08:14:23;15.20;;;10.40;;
67757;SDS011;54562;47.620;18.786;2023-05-07T08:17:29;16.00;;;11.50;;
67757;SDS011;54562;47.620;18.786;2023-05-07T08:20:35;15.40;;;11.10;;
67757;SDS011;54562;47.620;18.786;2023-05-07T08:23:42;16.90;;;11.60;;
67757;SDS011;54562;47.620;18.786;2023-05-07T08:26:48;16.30;;;12.30;;
67757;SDS011;54562;47.620;18.786;2023-05-07T08:29:54;16.10;;;11.90;;
67757;SDS011;54562;47.620;18.786;2023-05-07T08:33:00;16.20;;;12.10;;
67757;SDS011;54562;47.620;18.786;2023-05-07T08:36:07;15.90;;;11.70;;
67757;SDS011;54562;47.620;18.786;2023-05-07T08:39:13;16.80;;;12.20;;
67757;SDS011;54562;47.620;18.786;2023-05-07T08:42:20;15.90;;;11.80;;
67757;SDS011;54562;47.620;18.786;2023-05-07T08:45:27;16.40;;;11.70;;
67757;SDS011;54562;47.620;18.786;2023-05-07T08:48:33;15.70;;;11.70;;
67757;SDS011;54562;47.620;18.786;2023-05-07T08:51:40;15.80;;;11.90;;
67757;SDS011;54562;47.620;18.786;2023-05-07T08:54:47;16.70;;;12.80;;
67757;SDS011;54562;47.620;18.786;2023-05-07T08:57:53;17.40;;;13.10;;
67757;SDS011;54562;47.620;18.786;2023-05-07T09:00:59;17.10;;;12.80;;
67757;SDS011;54562;47.620;18.786;2023-05-07T09:04:07;17.10;;;11.40;;
67757;SDS011;54562;47.620;18.786;2023-05-07T09:07:15;15.50;;;11.50;;
67757;SDS011;54562;47.620;18.786;2023-05-07T09:10:22;13.50;;;10.00;;
67757;SDS011;54562;47.620;18.786;2023-05-07T09:13:29;12.10;;;9.30;;
67757;SDS011;54562;47.620;18.786;2023-05-07T09:16:35;12.70;;;9.50;;
67757;SDS011;54562;47.620;18.786;2023-05-07T09:19:42;12.00;;;9.00;;
67757;SDS011;54562;47.620;18.786;2023-05-07T09:22:50;12.00;;;8.70;;
67757;SDS011;54562;47.620;18.786;2023-05-07T09:25:56;14.30;;;10.10;;
67757;SDS011;54562;47.620;18.786;2023-05-07T09:32:10;13.60;;;10.00;;
67757;SDS011;54562;47.620;18.786;2023-05-07T09:35:17;13.00;;;10.10;;
67757;SDS011;54562;47.620;18.786;2023-05-07T09:38:24;13.30;;;10.20;;
67757;SDS011;54562;47.620;18.786;2023-05-07T09:41:32;13.70;;;10.20;;
67757;SDS011;54562;47.620;18.786;2023-05-07T09:44:40;12.80;;;10.10;;
67757;SDS011;54562;47.620;18.786;2023-05-07T09:47:47;11.90;;;8.70;;
67757;SDS011;54562;47.620;18.786;2023-05-07T09:50:55;12.80;;;8.40;;
67757;SDS011;54562;47.620;18.786;2023-05-07T09:54:02;10.70;;;7.80;;
67757;SDS011;54562;47.620;18.786;2023-05-07T09:57:09;10.80;;;7.40;;
67757;SDS011;54562;47.620;18.786;2023-05-07T10:00:16;10.90;;;7.40;;
67757;SDS011;54562;47.620;18.786;2023-05-07T10:03:24;10.00;;;7.30;;
67757;SDS011;54562;47.620;18.786;2023-05-07T10:06:33;10.40;;;7.60;;
67757;SDS011;54562;47.620;18.786;2023-05-07T10:09:40;10.20;;;6.80;;
67757;SDS011;54562;47.620;18.786;2023-05-07T10:12:47;10.40;;;6.80;;
67757;SDS011;54562;47.620;18.786;2023-05-07T10:15:54;8.80;;;6.50;;
67757;SDS011;54562;47.620;18.786;2023-05-07T10:19:00;11.10;;;6.80;;
67757;SDS011;54562;47.620;18.786;2023-05-07T10:22:08;16.30;;;9.00;;
67757;SDS011;54562;47.620;18.786;2023-05-07T10:25:16;11.10;;;7.70;;
67757;SDS011;54562;47.620;18.786;2023-05-07T10:28:25;17.10;;;7.40;;
67757;SDS011;54562;47.620;18.786;2023-05-07T10:31:38;10.30;;;7.50;;
67757;SDS011;54562;47.620;18.786;2023-05-07T10:34:56;9.60;;;7.20;;
67757;SDS011;54562;47.620;18.786;2023-05-07T10:38:10;9.60;;;6.90;;
67757;SDS011;54562;47.620;18.786;2023-05-07T10:41:16;9.30;;;6.90;;
67757;SDS011;54562;47.620;18.786;2023-05-07T10:44:27;10.80;;;6.40;;
67757;SDS011;54562;47.620;18.786;2023-05-07T10:47:34;10.50;;;7.40;;
67757;SDS011;54562;47.620;18.786;2023-05-07T10:50:40;9.30;;;6.40;;
67757;SDS011;54562;47.620;18.786;2023-05-07T10:53:47;8.40;;;5.80;;
67757;SDS011;54562;47.620;18.786;2023-05-07T10:56:53;7.60;;;5.30;;
67757;SDS011;54562;47.620;18.786;2023-05-07T10:59:59;10.10;;;6.10;;
67757;SDS011;54562;47.620;18.786;2023-05-07T11:03:06;9.60;;;6.00;;
67757;SDS011;54562;47.620;18.786;2023-05-07T11:06:13;7.80;;;5.10;;
67757;SDS011;54562;47.620;18.786;2023-05-07T11:09:20;8.40;;;4.80;;
67757;SDS011;54562;47.620;18.786;2023-05-07T11:15:57;7.60;;;5.10;;
67757;SDS011;54562;47.620;18.786;2023-05-07T11:19:03;8.40;;;5.20;;
67757;SDS011;54562;47.620;18.786;2023-05-07T11:22:17;7.50;;;5.10;;
67757;SDS011;54562;47.620;18.786;2023-05-07T11:25:43;8.30;;;4.60;;
67757;SDS011;54562;47.620;18.786;2023-05-07T11:28:50;6.40;;;4.10;;
67757;SDS011;54562;47.620;18.786;2023-05-07T11:31:57;8.30;;;4.80;;
67757;SDS011;54562;47.620;18.786;2023-05-07T11:35:07;7.40;;;5.10;;
67757;SDS011;54562;47.620;18.786;2023-05-07T11:38:14;7.30;;;4.80;;
67757;SDS011;54562;47.620;18.786;2023-05-07T11:48:03;7.20;;;4.90;;
67757;SDS011;54562;47.620;18.786;2023-05-07T11:51:09;22.70;;;5.70;;
67757;SDS011;54562;47.620;18.786;2023-05-07T11:54:16;8.30;;;4.80;;
67757;SDS011;54562;47.620;18.786;2023-05-07T11:57:24;6.90;;;4.60;;
67757;SDS011;54562;47.620;18.786;2023-05-07T12:00:31;8.20;;;4.00;;
67757;SDS011;54562;47.620;18.786;2023-05-07T12:03:37;6.80;;;3.90;;
67757;SDS011;54562;47.620;18.786;2023-05-07T12:06:46;8.10;;;4.60;;
67757;SDS011;54562;47.620;18.786;2023-05-07T12:09:54;7.30;;;5.00;;
67757;SDS011;54562;47.620;18.786;2023-05-07T12:13:00;6.50;;;4.10;;
67757;SDS011;54562;47.620;18.786;2023-05-07T12:16:07;6.30;;;3.80;;
67757;SDS011;54562;47.620;18.786;2023-05-07T12:19:13;7.10;;;4.70;;
67757;SDS011;54562;47.620;18.786;2023-05-07T12:22:19;8.20;;;4.30;;
67757;SDS011;54562;47.620;18.786;2023-05-07T12:25:26;8.30;;;5.10;;
67757;SDS011;54562;47.620;18.786;2023-05-07T12:28:32;7.50;;;4.30;;
67757;SDS011;54562;47.620;18.786;2023-05-07T12:31:43;6.50;;;4.10;;
67757;SDS011;54562;47.620;18.786;2023-05-07T12:34:50;6.60;;;4.00;;
67757;SDS011;54562;47.620;18.786;2023-05-07T12:37:57;6.20;;;4.00;;
67757;SDS011;54562;47.620;18.786;2023-05-07T12:41:07;7.30;;;4.30;;
67757;SDS011;54562;47.620;18.786;2023-05-07T12:44:16;9.80;;;5.70;;
67757;SDS011;54562;47.620;18.786;2023-05-07T12:47:22;9.60;;;5.30;;
67757;SDS011;54562;47.620;18.786;2023-05-07T12:50:30;10.40;;;5.40;;
67757;SDS011;54562;47.620;18.786;2023-05-07T12:53:39;9.40;;;5.30;;
67757;SDS011;54562;47.620;18.786;2023-05-07T12:56:46;7.30;;;5.10;;
67757;SDS011;54562;47.620;18.786;2023-05-07T12:59:57;7.60;;;4.70;;
67757;SDS011;54562;47.620;18.786;2023-05-07T13:03:04;9.20;;;3.40;;
67757;SDS011;54562;47.620;18.786;2023-05-07T13:06:10;5.80;;;3.30;;
67757;SDS011;54562;47.620;18.786;2023-05-07T13:09:16;6.70;;;4.30;;
67757;SDS011;54562;47.620;18.786;2023-05-07T13:12:23;6.40;;;3.90;;
67757;SDS011;54562;47.620;18.786;2023-05-07T13:15:29;6.90;;;3.70;;
67757;SDS011;54562;47.620;18.786;2023-05-07T13:18:35;8.40;;;3.80;;
67757;SDS011;54562;47.620;18.786;2023-05-07T13:21:43;7.90;;;4.00;;
67757;SDS011;54562;47.620;18.786;2023-05-07T13:24:49;6.80;;;3.70;;
67757;SDS011;54562;47.620;18.786;2023-05-07T13:27:56;6.40;;;3.70;;
67757;SDS011;54562;47.620;18.786;2023-05-07T13:31:13;6.10;;;3.40;;
67757;SDS011;54562;47.620;18.786;2023-05-07T13:34:19;5.80;;;3.20;;
67757;SDS011;54562;47.620;18.786;2023-05-07T13:37:26;6.30;;;3.00;;
67757;SDS011;54562;47.620;18.786;2023-05-07T13:40:32;5.80;;;3.30;;
67757;SDS011;54562;47.620;18.786;2023-05-07T13:43:38;6.50;;;3.50;;
67757;SDS011;54562;47.620;18.786;2023-05-07T13:46:45;7.00;;;3.70;;
67757;SDS011;54562;47.620;18.786;2023-05-07T13:49:52;7.60;;;3.50;;
67757;SDS011;54562;47.620;18.786;2023-05-07T13:52:58;6.70;;;3.50;;
67757;SDS011;54562;47.620;18.786;2023-05-07T13:56:05;6.90;;;3.50;;
67757;SDS011;54562;47.620;18.786;2023-05-07T13:59:11;7.50;;;4.20;;
67757;SDS011;54562;47.620;18.786;2023-05-07T14:02:18;7.50;;;4.00;;
67757;SDS011;54562;47.620;18.786;2023-05-07T14:05:24;8.20;;;4.40;;
67757;SDS011;54562;47.620;18.786;2023-05-07T14:08:32;7.70;;;4.20;;
67757;SDS011;54562;47.620;18.786;2023-05-07T14:11:38;8.60;;;5.30;;
67757;SDS011;54562;47.620;18.786;2023-05-07T14:14:44;8.30;;;4.50;;
67757;SDS011;54562;47.620;18.786;2023-05-07T14:17:53;7.80;;;4.90;;
67757;SDS011;54562;47.620;18.786;2023-05-07T14:21:00;8.60;;;4.50;;
67757;SDS011;54562;47.620;18.786;2023-05-07T14:24:07;8.10;;;5.00;;
67757;SDS011;54562;47.620;18.786;2023-05-07T14:27:14;7.70;;;4.30;;
67757;SDS011;54562;47.620;18.786;2023-05-07T14:30:20;8.40;;;4.40;;
67757;SDS011;54562;47.620;18.786;2023-05-07T14:33:27;8.20;;;4.50;;
67757;SDS011;54562;47.620;18.786;2023-05-07T14:36:33;8.90;;;4.10;;
67757;SDS011;54562;47.620;18.786;2023-05-07T14:39:40;7.30;;;4.20;;
67757;SDS011;54562;47.620;18.786;2023-05-07T14:42:52;6.50;;;3.60;;
67757;SDS011;54562;47.620;18.786;2023-05-07T14:46:00;5.90;;;3.40;;
67757;SDS011;54562;47.620;18.786;2023-05-07T14:49:06;6.20;;;3.40;;
67757;SDS011;54562;47.620;18.786;2023-05-07T14:52:19;5.80;;;3.00;;
67757;SDS011;54562;47.620;18.786;2023-05-07T14:55:25;6.00;;;2.90;;
67757;SDS011;54562;47.620;18.786;2023-05-07T14:58:32;5.30;;;2.70;;
67757;SDS011;54562;47.620;18.786;2023-05-07T15:01:39;5.20;;;2.80;;
67757;SDS011;54562;47.620;18.786;2023-05-07T15:04:48;5.10;;;2.60;;
67757;SDS011;54562;47.620;18.786;2023-05-07T15:07:54;4.90;;;2.60;;
67757;SDS011;54562;47.620;18.786;2023-05-07T15:11:00;5.80;;;2.70;;
67757;SDS011;54562;47.620;18.786;2023-05-07T15:14:07;5.30;;;2.60;;
67757;SDS011;54562;47.620;18.786;2023-05-07T15:17:13;4.90;;;2.60;;
67757;SDS011;54562;47.620;18.786;2023-05-07T15:20:19;5.70;;;2.50;;
67757;SDS011;54562;47.620;18.786;2023-05-07T15:23:26;5.50;;;2.30;;
67757;SDS011;54562;47.620;18.786;2023-05-07T15:26:32;6.10;;;2.50;;
67757;SDS011;54562;47.620;18.786;2023-05-07T15:29:38;4.90;;;2.20;;
67757;SDS011;54562;47.620;18.786;2023-05-07T15:32:46;6.60;;;2.50;;
67757;SDS011;54562;47.620;18.786;2023-05-07T15:35:52;5.00;;;2.40;;
67757;SDS011;54562;47.620;18.786;2023-05-07T15:39:02;6.30;;;2.30;;
67757;SDS011;54562;47.620;18.786;2023-05-07T15:42:09;6.00;;;2.30;;
67757;SDS011;54562;47.620;18.786;2023-05-07T15:45:16;4.90;;;2.30;;
67757;SDS011;54562;47.620;18.786;2023-05-07T15:48:23;5.30;;;2.10;;
67757;SDS011;54562;47.620;18.786;2023-05-07T15:51:30;5.30;;;2.20;;
67757;SDS011;54562;47.620;18.786;2023-05-07T15:54:38;5.20;;;2.40;;
67757;SDS011;54562;47.620;18.786;2023-05-07T15:57:45;5.00;;;2.30;;
67757;SDS011;54562;47.620;18.786;2023-05-07T16:00:51;7.80;;;2.40;;
67757;SDS011;54562;47.620;18.786;2023-05-07T16:03:58;6.10;;;2.30;;
67757;SDS011;54562;47.620;18.786;2023-05-07T16:07:05;4.70;;;2.40;;
67757;SDS011;54562;47.620;18.786;2023-05-07T16:10:14;9.00;;;2.50;;
67757;SDS011;54562;47.620;18.786;2023-05-07T16:13:21;5.20;;;2.40;;
67757;SDS011;54562;47.620;18.786;2023-05-07T16:16:28;5.60;;;2.50;;
67757;SDS011;54562;47.620;18.786;2023-05-07T16:19:38;5.40;;;2.40;;
67757;SDS011;54562;47.620;18.786;2023-05-07T16:22:44;6.10;;;2.70;;
67757;SDS011;54562;47.620;18.786;2023-05-07T16:25:50;7.70;;;2.70;;
67757;SDS011;54562;47.620;18.786;2023-05-07T16:28:57;5.60;;;2.60;;
67757;SDS011;54562;47.620;18.786;2023-05-07T16:32:03;5.50;;;2.30;;
67757;SDS011;54562;47.620;18.786;2023-05-07T16:35:10;5.40;;;2.40;;
67757;SDS011;54562;47.620;18.786;2023-05-07T16:38:17;4.90;;;2.40;;
67757;SDS011;54562;47.620;18.786;2023-05-07T16:41:23;5.10;;;2.30;;
67757;SDS011;54562;47.620;18.786;2023-05-07T16:44:30;4.70;;;2.30;;
67757;SDS011;54562;47.620;18.786;2023-05-07T16:47:36;5.50;;;2.50;;
67757;SDS011;54562;47.620;18.786;2023-05-07T16:50:42;5.40;;;2.60;;
67757;SDS011;54562;47.620;18.786;2023-05-07T16:53:49;5.20;;;2.20;;
67757;SDS011;54562;47.620;18.786;2023-05-07T16:56:55;5.30;;;2.50;;
67757;SDS011;54562;47.620;18.786;2023-05-07T17:00:02;5.90;;;2.30;;
67757;SDS011;54562;47.620;18.786;2023-05-07T17:03:09;5.00;;;2.30;;
67757;SDS011;54562;47.620;18.786;2023-05-07T17:06:16;6.10;;;2.60;;
67757;SDS011;54562;47.620;18.786;2023-05-07T17:09:22;5.40;;;2.60;;
67757;SDS011;54562;47.620;18.786;2023-05-07T17:12:29;4.90;;;2.40;;
67757;SDS011;54562;47.620;18.786;2023-05-07T17:15:37;5.20;;;2.50;;
67757;SDS011;54562;47.620;18.786;2023-05-07T17:18:45;4.70;;;2.40;;
67757;SDS011;54562;47.620;18.786;2023-05-07T17:21:52;5.00;;;2.60;;
67757;SDS011;54562;47.620;18.786;2023-05-07T17:24:58;5.70;;;2.80;;
67757;SDS011;54562;47.620;18.786;2023-05-07T17:28:06;6.20;;;3.00;;
67757;SDS011;54562;47.620;18.786;2023-05-07T17:31:13;5.70;;;3.10;;
67757;SDS011;54562;47.620;18.786;2023-05-07T17:34:19;6.30;;;3.00;;
67757;SDS011;54562;47.620;18.786;2023-05-07T17:37:26;5.70;;;2.90;;
67757;SDS011;54562;47.620;18.786;2023-05-07T17:40:32;6.10;;;3.20;;
67757;SDS011;54562;47.620;18.786;2023-05-07T17:43:39;6.00;;;3.60;;
67757;SDS011;54562;47.620;18.786;2023-05-07T17:46:45;5.90;;;3.20;;
67757;SDS011;54562;47.620;18.786;2023-05-07T17:49:51;6.80;;;3.60;;
67757;SDS011;54562;47.620;18.786;2023-05-07T17:52:57;6.70;;;3.60;;
67757;SDS011;54562;47.620;18.786;2023-05-07T17:56:04;7.10;;;3.70;;
67757;SDS011;54562;47.620;18.786;2023-05-07T17:59:10;6.80;;;3.60;;
67757;SDS011;54562;47.620;18.786;2023-05-07T18:02:16;7.40;;;3.60;;
67757;SDS011;54562;47.620;18.786;2023-05-07T18:05:23;6.70;;;3.70;;
67757;SDS011;54562;47.620;18.786;2023-05-07T18:08:29;6.10;;;3.50;;
67757;SDS011;54562;47.620;18.786;2023-05-07T18:11:37;6.70;;;3.80;;
67757;SDS011;54562;47.620;18.786;2023-05-07T18:14:43;6.90;;;3.90;;
67757;SDS011;54562;47.620;18.786;2023-05-07T18:17:49;6.90;;;3.70;;
67757;SDS011;54562;47.620;18.786;2023-05-07T18:20:56;7.30;;;4.10;;
67757;SDS011;54562;47.620;18.786;2023-05-07T18:24:03;7.60;;;4.30;;
67757;SDS011;54562;47.620;18.786;2023-05-07T18:27:10;7.80;;;4.10;;
67757;SDS011;54562;47.620;18.786;2023-05-07T18:30:17;7.20;;;4.20;;
67757;SDS011;54562;47.620;18.786;2023-05-07T18:33:24;7.60;;;4.40;;